Time;durP1;ratioP1;P1;durP2;ratioP2;P2;SDS_P1;SDS_P2;PMS_P1;PMS_P2;Temp;Humidity;BMP_temperature;BMP_pressure;BME280_temperature;BME280_humidity;BME280_pressure;Samples;Min_cycle;Max_cycle;Signal;HPM_P1;HPM_P2
2021/07/15 00:01:13;;;;;;;6.05;3.25;;;15.20;99.90;;;14.99;96.88;101849.16;4185500;28;20043;-77
2021/07/15 00:03:19;;;;;;;3.67;2.95;;;15.10;99.90;;;15.00;97.12;101852.63;4185547;28;20037;-76
2021/07/15 00:05:21;;;;;;;5.50;3.38;;;15.10;99.90;;;15.06;97.13;101863.47;4185692;28;20029;-76
2021/07/15 00:07:22;;;;;;;4.55;3.50;;;15.20;99.90;;;14.98;97.07;101855.44;4185470;28;20033;-76
2021/07/15 00:09:23;;;;;;;4.47;3.80;;;15.10;99.90;;;14.94;97.03;101856.75;4185368;28;20053;-76
2021/07/15 00:11:28;;;;;;;7.50;3.97;;;15.10;99.90;;;14.86;97.47;101856.69;4185594;28;20492;-76
2021/07/15 00:13:29;;;;;;;6.07;3.53;;;15.10;99.90;;;14.92;97.15;101862.22;4202995;28;20055;-76
2021/07/15 00:15:32;;;;;;;4.13;3.72;;;15.10;99.90;;;14.91;97.81;101854.41;4168702;28;20021;-77
2021/07/15 00:17:33;;;;;;;4.85;3.53;;;15.10;99.90;;;14.85;98.00;101855.03;4203012;28;20498;-77
2021/07/15 00:19:34;;;;;;;6.32;3.80;;;15.10;99.90;;;14.90;98.18;101852.75;4203181;28;20039;-77
2021/07/15 00:21:35;;;;;;;6.68;3.13;;;15.10;99.90;;;14.84;98.51;101845.41;4185092;28;20037;-77
2021/07/15 00:23:37;;;;;;;4.60;4.18;;;15.00;99.90;;;14.84;98.19;101846.22;4185016;28;20512;-77
2021/07/15 00:25:39;;;;;;;4.55;4.07;;;15.00;99.90;;;14.85;98.47;101853.22;4202822;28;20554;-77
2021/07/15 00:27:41;;;;;;;5.32;4.10;;;15.00;99.90;;;14.83;98.56;101838.41;4185274;28;20127;-77
2021/07/15 00:29:42;;;;;;;6.10;3.30;;;15.00;99.90;;;14.86;98.34;101849.56;4202665;28;20021;-76
2021/07/15 00:31:43;;;;;;;5.00;3.67;;;15.00;99.90;;;14.84;98.50;101835.59;4184991;28;20032;-77
2021/07/15 00:33:45;;;;;;;5.88;4.13;;;15.00;99.90;;;14.79;98.66;101845.03;4202732;28;20543;-77
2021/07/15 00:35:46;;;;;;;5.47;4.15;;;15.00;99.90;;;14.78;98.96;101859.31;4185019;28;20025;-77
2021/07/15 00:37:47;;;;;;;4.68;4.22;;;15.00;99.90;;;14.70;98.85;101846.78;4202726;28;20035;-76
2021/07/15 00:39:49;;;;;;;4.80;4.30;;;15.00;99.90;;;14.71;98.82;101851.13;4184693;28;20040;-77
2021/07/15 00:41:49;;;;;;;5.60;4.53;;;14.90;99.90;;;14.70;98.58;101838.00;4184865;28;20061;-77
2021/07/15 00:43:51;;;;;;;5.15;4.65;;;14.90;99.90;;;14.73;98.95;101849.13;4202373;28;20495;-77
2021/07/15 00:45:52;;;;;;;6.85;5.57;;;14.90;99.90;;;14.76;98.97;101845.34;4184959;28;20052;-77
2021/07/15 00:47:53;;;;;;;5.95;4.78;;;14.90;99.90;;;14.69;99.14;101842.50;4184744;28;20036;-77
2021/07/15 00:49:54;;;;;;;7.60;4.75;;;14.90;99.90;;;14.64;99.68;101843.94;4202503;28;20020;-77
2021/07/15 00:51:55;;;;;;;6.03;5.43;;;14.90;99.90;;;14.66;99.91;101839.31;4184774;28;20033;-76
2021/07/15 00:53:57;;;;;;;5.72;5.03;;;14.90;99.90;;;14.73;99.77;101841.19;4184804;28;20083;-76
2021/07/15 00:55:58;;;;;;;7.82;5.55;;;14.90;99.90;;;14.74;99.61;101834.88;4184615;28;20025;-77
2021/07/15 00:58:01;;;;;;;7.85;4.70;;;14.90;99.90;;;14.71;99.66;101844.97;4184583;28;20066;-77
2021/07/15 01:00:08;;;;;;;10.38;5.13;;;14.90;99.90;;;14.76;99.68;101842.69;4184429;28;20032;-77
2021/07/15 01:02:09;;;;;;;5.82;5.22;;;14.90;99.90;;;14.82;99.67;101847.38;4185122;28;20492;-76
2021/07/15 01:04:10;;;;;;;8.45;5.63;;;14.90;99.90;;;14.81;99.76;101829.78;4184452;28;20037;-77
2021/07/15 01:06:11;;;;;;;9.00;4.97;;;14.90;99.90;;;14.76;100.00;101832.91;4202181;28;20036;-77
2021/07/15 01:08:14;;;;;;;7.50;4.63;;;14.90;99.90;;;14.77;100.00;101839.03;4202164;28;20496;-77
2021/07/15 01:10:20;;;;;;;6.07;4.75;;;14.90;99.90;;;14.71;100.00;101837.00;4184569;28;20021;-76
2021/07/15 01:12:57;;;;;;;9.15;5.28;;;14.90;99.90;;;14.92;100.00;101840.13;4184555;28;20029;-77
2021/07/15 01:15:14;;;;;;;6.00;5.03;;;14.90;99.90;;;14.80;100.00;101836.06;4201835;28;20029;-77
2021/07/15 01:17:21;;;;;;;8.05;5.43;;;14.90;99.90;;;14.80;100.00;101828.94;4167755;28;20528;-76
2021/07/15 01:19:37;;;;;;;6.80;5.57;;;15.00;99.90;;;14.81;100.00;101835.09;4184121;28;20082;-77
2021/07/15 01:22:01;;;;;;;9.48;5.97;;;14.90;99.90;;;14.83;100.00;101838.41;4202034;28;20399;-76
2021/07/15 01:24:21;;;;;;;6.35;4.70;;;15.00;99.90;;;14.82;100.00;101837.59;4201981;28;20442;-77
2021/07/15 01:26:49;;;;;;;6.50;4.90;;;14.90;99.90;;;14.80;100.00;101838.72;4201911;28;20036;-77
2021/07/15 01:29:24;;;;;;;6.82;4.70;;;15.00;99.90;;;14.77;100.00;101839.88;4201579;28;20044;-77
2021/07/15 01:31:25;;;;;;;7.72;5.78;;;15.00;99.90;;;14.83;100.00;101841.91;4184051;28;20033;-76
2021/07/15 01:33:32;;;;;;;6.82;5.03;;;15.00;99.90;;;14.81;100.00;101835.09;4184081;28;20037;-76
2021/07/15 01:36:04;;;;;;;11.20;6.03;;;15.00;99.90;;;14.89;100.00;101837.78;4167465;28;20045;-77
2021/07/15 01:38:07;;;;;;;9.32;5.53;;;15.00;99.90;;;14.89;100.00;101835.13;4201835;28;20024;-76
2021/07/15 01:40:10;;;;;;;7.68;5.47;;;15.00;99.90;;;14.98;100.00;101839.50;4183715;28;20059;-76
2021/07/15 01:42:15;;;;;;;7.88;4.90;;;15.00;99.90;;;14.87;100.00;101840.59;4183606;28;20029;-76
2021/07/15 01:44:27;;;;;;;7.97;5.60;;;15.00;99.90;;;14.93;100.00;101839.97;4184098;28;20028;-76
2021/07/15 01:46:28;;;;;;;7.72;5.60;;;15.00;99.90;;;14.89;100.00;101835.97;4184192;28;20033;-76
2021/07/15 01:48:30;;;;;;;7.72;5.65;;;15.00;99.90;;;14.93;100.00;101841.81;4201478;28;20116;-76
2021/07/15 01:50:32;;;;;;;10.68;6.07;;;15.10;99.90;;;14.90;100.00;101842.13;4184060;28;20025;-76
2021/07/15 01:52:33;;;;;;;9.02;5.97;;;15.00;99.90;;;14.89;100.00;101851.91;4183929;28;20021;-76
2021/07/15 01:54:35;;;;;;;6.88;5.47;;;15.00;99.90;;;14.89;100.00;101835.13;4183893;28;20076;-76
2021/07/15 01:56:40;;;;;;;9.45;4.97;;;15.00;99.90;;;15.06;100.00;101849.34;4167147;28;20055;-76
2021/07/15 01:58:43;;;;;;;7.10;6.07;;;15.10;99.90;;;14.91;100.00;101846.44;4183918;28;20029;-76
2021/07/15 02:00:46;;;;;;;7.82;5.50;;;15.10;99.90;;;14.96;100.00;101844.16;4183888;28;20066;-76
2021/07/15 02:02:49;;;;;;;6.18;5.13;;;15.10;99.90;;;15.09;100.00;101838.38;4183772;28;20416;-76
2021/07/15 02:04:55;;;;;;;13.20;5.65;;;15.10;99.90;;;15.12;99.63;101838.91;4183807;28;20420;-75
2021/07/15 02:06:57;;;;;;;7.60;5.78;;;15.20;99.90;;;14.99;100.00;101833.22;4183842;28;20157;-76
2021/07/15 02:09:00;;;;;;;6.47;4.97;;;15.10;99.90;;;15.11;99.55;101837.25;4183813;28;20112;-77
2021/07/15 02:11:02;;;;;;;8.02;5.47;;;15.20;99.90;;;15.07;98.93;101827.09;4183745;28;20061;-76
2021/07/15 02:13:06;;;;;;;5.45;4.80;;;15.20;99.90;;;14.94;99.82;101823.03;4166864;28;20033;-77
2021/07/15 02:15:08;;;;;;;9.27;6.28;;;15.10;99.90;;;14.79;100.00;101815.81;4201497;28;20027;-76
2021/07/15 02:17:10;;;;;;;7.28;5.35;;;15.10;99.90;;;14.82;100.00;101826.97;4170142;28;20029;-76
2021/07/15 02:19:14;;;;;;;7.25;5.35;;;15.10;99.90;;;15.03;99.17;101833.69;4187056;28;20028;-76
2021/07/15 02:21:16;;;;;;;6.78;5.38;;;15.10;99.90;;;14.94;99.35;101832.84;4170596;28;20029;-76
2021/07/15 02:23:17;;;;;;;8.50;4.63;;;15.10;99.90;;;14.84;99.75;101834.78;4204746;28;20025;-76
2021/07/15 02:25:20;;;;;;;7.30;5.63;;;15.00;99.90;;;14.83;99.70;101825.13;4186955;28;20516;-76
2021/07/15 02:27:21;;;;;;;5.88;4.45;;;15.00;99.90;;;14.78;100.00;101825.59;4186852;28;20087;-76
2021/07/15 02:29:22;;;;;;;7.65;5.07;;;15.00;99.90;;;14.89;99.73;101822.69;4204512;28;20032;-77
2021/07/15 02:31:45;;;;;;;7.32;6.28;;;15.00;99.90;;;14.92;99.68;101833.00;4204657;28;20060;-76
2021/07/15 02:33:56;;;;;;;6.90;5.40;;;15.00;99.90;;;14.89;99.33;101822.69;4170846;28;20018;-76
2021/07/15 02:36:02;;;;;;;7.13;5.78;;;15.00;99.90;;;14.78;99.81;101832.75;4187871;28;20047;-76
2021/07/15 02:38:08;;;;;;;7.45;5.38;;;15.00;99.90;;;14.82;99.82;101826.13;4186912;28;20080;-76
2021/07/15 02:40:14;;;;;;;7.63;5.63;;;15.00;99.90;;;14.92;98.64;101837.47;4204340;28;20040;-76
2021/07/15 02:42:16;;;;;;;6.63;5.90;;;15.00;99.90;;;14.77;99.72;101829.25;4174042;28;20037;-76
2021/07/15 02:44:17;;;;;;;7.85;4.30;;;15.00;99.90;;;14.79;99.55;101832.59;4170005;28;20025;-76
2021/07/15 02:46:17;;;;;;;7.60;4.72;;;15.00;99.90;;;14.67;100.00;101830.34;4204518;28;20036;-75
2021/07/15 02:48:19;;;;;;;6.68;5.07;;;14.90;99.90;;;14.70;100.00;101830.03;4204237;28;20029;-76
2021/07/15 02:50:24;;;;;;;9.00;5.63;;;14.90;99.90;;;14.78;100.00;101824.78;4186681;28;20027;-76
2021/07/15 02:52:25;;;;;;;6.30;5.35;;;14.90;99.90;;;14.89;100.00;101821.84;4186682;28;20056;-76
2021/07/15 02:54:26;;;;;;;7.43;5.63;;;14.90;99.90;;;15.02;99.49;101826.75;4186650;28;20025;-76
2021/07/15 02:56:37;;;;;;;6.35;4.97;;;15.00;99.90;;;14.98;99.61;101838.66;4204255;28;20037;-77
2021/07/15 02:58:51;;;;;;;7.60;6.22;;;15.00;99.90;;;15.11;99.07;101834.59;4186116;28;20036;-76
2021/07/15 03:01:00;;;;;;;9.15;5.82;;;15.10;99.90;;;15.12;98.78;101822.13;4204305;28;20020;-75
2021/07/15 03:03:37;;;;;;;9.45;6.30;;;15.20;99.90;;;14.97;99.51;101840.50;4186403;28;20063;-76
2021/07/15 03:06:13;;;;;;;7.70;5.82;;;15.10;99.90;;;14.98;99.22;101826.22;4186248;28;20029;-76
2021/07/15 03:08:25;;;;;;;7.97;5.72;;;15.20;99.90;;;15.05;98.97;101834.41;4166900;28;20069;-76
2021/07/15 03:10:28;;;;;;;8.13;6.53;;;15.20;99.90;;;15.07;98.31;101827.94;4186618;28;20032;-76
2021/07/15 03:12:36;;;;;;;9.23;6.68;;;15.20;99.90;;;14.87;99.64;101821.19;4186382;28;20029;-76
2021/07/15 03:14:41;;;;;;;8.50;6.15;;;15.20;99.90;;;14.98;99.42;101828.88;4186430;28;20029;-75
2021/07/15 03:16:45;;;;;;;7.25;5.28;;;15.20;99.90;;;14.83;100.00;101827.78;4186652;28;20021;-76
2021/07/15 03:18:48;;;;;;;10.65;5.78;;;15.10;99.90;;;14.90;100.00;101834.97;4186237;28;20032;-76
2021/07/15 03:20:51;;;;;;;8.45;6.55;;;15.10;99.90;;;14.85;99.88;101823.16;4186177;28;20028;-76
2021/07/15 03:23:01;;;;;;;9.05;6.10;;;15.00;99.90;;;14.90;99.71;101839.47;4186361;28;20493;-76
2021/07/15 03:25:12;;;;;;;7.82;5.97;;;15.00;99.90;;;14.99;99.15;101830.56;4186147;28;20037;-75
2021/07/15 03:27:15;;;;;;;9.77;6.97;;;15.00;99.90;;;14.95;98.06;101826.53;4184592;28;20039;-76
2021/07/15 03:29:16;;;;;;;7.38;5.18;;;15.00;99.90;;;14.79;99.03;101821.13;4186110;28;20439;-76
2021/07/15 03:31:18;;;;;;;6.25;5.45;;;15.00;99.90;;;14.70;99.80;101824.72;4186111;28;20024;-75
2021/07/15 03:33:22;;;;;;;7.38;6.38;;;14.90;99.90;;;14.78;99.76;101832.75;4185960;28;20090;-76
2021/07/15 03:35:25;;;;;;;10.45;5.95;;;14.90;99.90;;;14.75;99.77;101833.91;4185876;28;20440;-76
2021/07/15 03:37:26;;;;;;;9.27;6.55;;;14.90;99.90;;;14.76;100.00;101829.41;4186048;28;20036;-75
2021/07/15 03:39:28;;;;;;;11.35;5.68;;;14.90;99.90;;;14.67;100.00;101827.69;4185781;28;20070;-76
2021/07/15 03:41:29;;;;;;;7.18;5.55;;;14.90;99.90;;;14.61;100.00;101826.47;4179419;28;20044;-76
2021/07/15 03:43:32;;;;;;;10.95;6.88;;;14.80;99.90;;;14.63;100.00;101829.00;4202044;28;20031;-75
2021/07/15 03:45:34;;;;;;;11.80;7.35;;;14.80;99.90;;;14.65;100.00;101832.31;4169506;28;20025;-76
2021/07/15 03:47:38;;;;;;;6.88;5.93;;;14.80;99.90;;;14.69;100.00;101837.19;4185681;28;20037;-76
2021/07/15 03:49:43;;;;;;;8.73;6.32;;;14.80;99.90;;;14.64;99.55;101831.47;4185895;28;20089;-75
2021/07/15 03:51:45;;;;;;;6.53;5.47;;;14.70;99.90;;;14.47;100.00;101839.50;4185842;28;20049;-76
2021/07/15 03:53:47;;;;;;;9.63;6.28;;;14.70;99.90;;;14.38;100.00;101833.28;4169256;28;20040;-76
2021/07/15 03:55:49;;;;;;;9.00;6.15;;;14.70;99.90;;;14.46;100.00;101835.16;4169006;28;20022;-76
2021/07/15 03:57:51;;;;;;;8.27;5.57;;;14.60;99.90;;;14.30;100.00;101828.72;4185567;28;20071;-76
2021/07/15 03:59:54;;;;;;;11.45;7.68;;;14.60;99.90;;;14.39;100.00;101830.47;4185404;28;20454;-76
2021/07/15 04:02:05;;;;;;;8.55;6.97;;;14.60;99.90;;;14.25;100.00;101828.34;4185311;28;20424;-75
2021/07/15 04:04:08;;;;;;;10.15;7.22;;;14.50;99.90;;;14.29;100.00;101834.19;4185662;28;20036;-75
2021/07/15 04:06:11;;;;;;;7.25;6.53;;;14.50;99.90;;;14.34;100.00;101842.53;4185575;28;20039;-76
2021/07/15 04:08:14;;;;;;;9.65;7.00;;;14.50;99.90;;;14.43;100.00;101835.47;4185350;28;20040;-75
2021/07/15 04:10:16;;;;;;;10.50;6.90;;;14.50;99.90;;;14.59;100.00;101835.59;4168734;28;20033;-75
2021/07/15 04:12:24;;;;;;;11.55;7.05;;;14.60;99.90;;;14.58;100.00;101839.22;4168612;28;20021;-75
2021/07/15 04:14:55;;;;;;;8.73;6.65;;;14.80;99.90;;;14.47;100.00;101845.66;4168513;28;20028;-75
2021/07/15 04:17:09;;;;;;;10.32;6.95;;;14.70;99.90;;;14.49;100.00;101841.00;4185053;28;20488;-75
2021/07/15 04:19:13;;;;;;;10.02;7.03;;;14.60;99.90;;;14.53;100.00;101836.22;4202954;28;20107;-75
2021/07/15 04:21:16;;;;;;;9.95;6.65;;;14.70;99.90;;;14.51;100.00;101846.16;4202993;28;20033;-75
2021/07/15 04:23:19;;;;;;;10.40;7.77;;;14.60;99.90;;;14.64;100.00;101844.75;4168571;28;20057;-75
2021/07/15 04:25:23;;;;;;;10.07;7.68;;;14.70;99.90;;;14.56;100.00;101841.22;4185003;28;20122;-75
2021/07/15 04:27:24;;;;;;;;;;;14.80;99.90;;;14.49;100.00;101840.16;4185494;28;20528;-75
2021/07/15 04:29:28;;;;;;;9.95;7.70;;;14.70;99.90;;;14.55;100.00;101840.38;4184918;28;19994;-76
2021/07/15 04:31:44;;;;;;;10.15;7.95;;;14.70;99.90;;;14.64;100.00;101841.28;4185176;28;20033;-75
2021/07/15 04:33:46;;;;;;;10.65;6.90;;;14.80;99.90;;;14.53;100.00;101846.84;4202763;28;20096;-76
2021/07/15 04:35:47;;;;;;;9.77;6.85;;;14.70;99.90;;;14.37;100.00;101843.06;4185186;28;20021;-75
2021/07/15 04:37:51;;;;;;;12.63;7.15;;;14.70;99.90;;;14.49;100.00;101843.66;4168487;28;20036;-76
2021/07/15 04:39:54;;;;;;;7.20;6.47;;;14.70;99.90;;;14.49;100.00;101846.31;4184450;28;20129;-75
2021/07/15 04:41:59;;;;;;;8.25;6.80;;;14.70;99.90;;;14.33;100.00;101835.59;4182064;28;20029;-75
2021/07/15 04:44:00;;;;;;;9.55;7.15;;;14.70;99.90;;;14.32;100.00;101839.19;4202523;28;20479;-75
2021/07/15 04:46:02;;;;;;;10.18;7.03;;;14.60;99.90;;;14.40;100.00;101850.72;4185001;28;20055;-75
2021/07/15 04:48:05;;;;;;;9.75;6.95;;;14.60;99.90;;;14.33;100.00;101849.69;4184855;28;20025;-75
2021/07/15 04:50:17;;;;;;;7.50;6.55;;;14.60;99.90;;;14.26;100.00;101851.25;4184763;28;20028;-75
2021/07/15 04:52:20;;;;;;;9.85;6.78;;;14.50;99.90;;;14.26;100.00;101845.94;4185914;28;20504;-76
2021/07/15 04:54:23;;;;;;;9.23;7.65;;;14.50;99.90;;;14.38;100.00;101841.25;4168329;28;20048;-76
2021/07/15 04:56:24;;;;;;;8.95;7.47;;;14.60;99.90;;;14.37;100.00;101845.72;4184787;28;20021;-75
2021/07/15 04:58:26;;;;;;;10.23;7.43;;;14.60;99.90;;;14.34;100.00;101846.03;4167867;28;20121;-75
2021/07/15 05:00:27;;;;;;;9.10;8.00;;;14.60;99.90;;;14.39;100.00;101835.78;4184782;28;20028;-76
2021/07/15 05:02:28;;;;;;;10.75;7.65;;;14.60;99.90;;;14.49;100.00;101843.66;4202433;28;20063;-76
2021/07/15 05:04:29;;;;;;;9.07;6.97;;;14.70;99.90;;;14.45;100.00;101841.47;4184621;28;20037;-76
2021/07/15 05:06:30;;;;;;;10.63;7.60;;;14.70;99.90;;;14.40;100.00;101842.75;4184539;28;20079;-76
2021/07/15 05:08:33;;;;;;;13.18;8.13;;;14.70;99.90;;;14.47;100.00;101847.47;4184569;28;20037;-75
2021/07/15 05:10:34;;;;;;;10.10;8.10;;;14.70;99.90;;;14.58;100.00;101861.31;4184583;28;20024;-75
2021/07/15 05:12:35;;;;;;;11.07;7.70;;;14.70;99.90;;;14.57;100.00;101849.06;4202231;28;20028;-75
2021/07/15 05:14:40;;;;;;;11.80;8.85;;;14.80;99.90;;;14.58;100.00;101855.16;4184200;28;20021;-75
2021/07/15 05:16:41;;;;;;;13.60;8.02;;;14.80;99.90;;;14.55;100.00;101860.78;4185100;28;20029;-75
2021/07/15 05:18:42;;;;;;;11.18;7.40;;;14.80;99.90;;;14.46;100.00;101851.94;4184434;28;20021;-76
2021/07/15 05:20:44;;;;;;;11.00;8.32;;;14.80;99.90;;;14.49;100.00;101850.78;4184365;28;20029;-75
2021/07/15 05:22:44;;;;;;;13.45;8.32;;;14.80;99.90;;;14.62;100.00;101856.53;4184469;28;20037;-76
2021/07/15 05:24:45;;;;;;;11.45;8.07;;;14.90;99.90;;;14.80;100.00;101865.28;4201924;28;20103;-75
2021/07/15 05:26:47;;;;;;;11.63;9.27;;;14.90;99.90;;;14.74;100.00;101852.63;4184195;28;20518;-76
2021/07/15 05:28:49;;;;;;;11.25;8.48;;;15.00;99.90;;;14.72;100.00;101863.44;4201423;28;20034;-76
2021/07/15 05:30:50;;;;;;;13.90;8.93;;;15.00;99.90;;;14.81;100.00;101864.31;4184278;28;20021;-75
2021/07/15 05:32:51;;;;;;;12.13;8.65;;;15.10;99.90;;;14.87;100.00;101866.34;4184181;28;20057;-75
2021/07/15 05:34:52;;;;;;;12.98;8.48;;;15.20;99.90;;;14.96;100.00;101866.22;4167562;28;20022;-75
2021/07/15 05:36:53;;;;;;;10.68;8.10;;;15.20;99.90;;;15.00;100.00;101869.41;4184067;28;20060;-75
2021/07/15 05:38:54;;;;;;;12.30;8.63;;;15.30;99.90;;;15.00;100.00;101866.75;4201605;28;20027;-75
2021/07/15 05:40:55;;;;;;;9.23;7.10;;;15.30;99.90;;;14.97;100.00;101869.72;4201750;28;20044;-75
2021/07/15 05:42:56;;;;;;;13.68;8.95;;;15.30;99.90;;;14.98;100.00;101867.91;4183712;28;20067;-76
2021/07/15 05:44:57;;;;;;;14.60;8.75;;;15.40;99.90;;;15.01;100.00;101873.72;4200432;28;20020;-76
2021/07/15 05:46:58;;;;;;;16.05;10.02;;;15.40;99.90;;;15.03;100.00;101877.06;4183726;28;20017;-75
2021/07/15 05:48:59;;;;;;;10.38;7.32;;;15.40;99.90;;;15.02;100.00;101874.56;4201640;28;20029;-76
2021/07/15 05:50:59;;;;;;;10.23;8.38;;;15.40;99.90;;;15.07;100.00;101869.59;4183214;28;20099;-75
2021/07/15 05:53:01;;;;;;;8.98;6.93;;;15.40;99.90;;;15.02;100.00;101872.75;4201622;28;20395;-75
2021/07/15 05:55:02;;;;;;;13.00;9.15;;;15.40;99.90;;;15.13;100.00;101872.47;4201505;28;20047;-76
2021/07/15 05:57:05;;;;;;;12.73;8.82;;;15.50;99.90;;;15.22;100.00;101876.84;4183931;28;20021;-75
2021/07/15 05:59:06;;;;;;;10.27;8.77;;;15.60;99.90;;;15.13;100.00;101869.81;4200966;28;20041;-75
2021/07/15 06:01:07;;;;;;;10.35;8.18;;;15.60;99.90;;;15.18;100.00;101870.16;4183719;28;20120;-75
2021/07/15 06:03:07;;;;;;;18.80;9.25;;;15.60;99.90;;;15.19;100.00;101869.19;4201358;28;20027;-76
2021/07/15 06:05:09;;;;;;;12.40;9.00;;;15.60;99.90;;;15.34;100.00;101883.56;4201580;28;20560;-75
2021/07/15 06:07:10;;;;;;;10.95;8.05;;;15.70;99.90;;;15.40;100.00;101876.75;4187149;28;20025;-75
2021/07/15 06:09:11;;;;;;;12.60;8.38;;;15.80;99.90;;;15.49;99.16;101882.00;4182613;28;20472;-76
2021/07/15 06:11:12;;;;;;;13.70;8.98;;;15.90;99.90;;;15.47;100.00;101891.94;4201334;28;20364;-76
2021/07/15 06:13:13;;;;;;;9.57;7.18;;;16.00;99.90;;;15.44;100.00;101886.91;4201307;28;20064;-75
2021/07/15 06:15:14;;;;;;;14.35;7.93;;;16.00;99.90;;;15.56;99.96;101886.66;4183799;28;20562;-76
2021/07/15 06:17:16;;;;;;;12.38;8.60;;;16.00;99.90;;;15.37;100.00;101888.56;4183684;28;20033;-76
2021/07/15 06:19:17;;;;;;;11.77;8.00;;;16.00;99.90;;;15.44;100.00;101896.72;4200922;28;20073;-76
2021/07/15 06:21:18;;;;;;;8.95;7.63;;;16.00;99.90;;;15.48;100.00;101892.78;4183696;28;20033;-76
2021/07/15 06:23:19;;;;;;;12.45;7.38;;;16.00;99.90;;;15.58;100.00;101897.97;4183663;28;20507;-76
2021/07/15 06:25:22;;;;;;;11.45;8.38;;;16.10;99.90;;;15.58;99.89;101897.97;4183357;28;20506;-77
2021/07/15 06:27:23;;;;;;;16.33;9.10;;;16.10;99.90;;;15.58;100.00;101911.28;4196805;28;20660;-74
2021/07/15 06:29:26;;;;;;;9.68;7.65;;;16.20;99.90;;;15.69;99.79;101908.31;4181882;28;20021;-74
2021/07/15 06:31:27;;;;;;;9.48;7.22;;;16.20;99.90;;;15.79;99.65;101909.03;4108183;28;20401;-74
2021/07/15 06:33:28;;;;;;;10.40;8.38;;;16.30;99.90;;;15.78;99.35;101913.50;4162522;28;20456;-73
2021/07/15 06:35:29;;;;;;;10.05;7.85;;;16.40;99.90;;;15.72;99.60;101911.50;4167762;28;20017;-74
2021/07/15 06:37:37;;;;;;;10.65;8.43;;;16.50;99.90;;;15.40;100.00;101911.31;4150244;28;20064;-72
2021/07/15 06:39:38;;;;;;;12.25;9.65;;;16.40;99.90;;;15.29;100.00;101925.72;4197344;28;20027;-73
2021/07/15 06:41:40;;;;;;;11.82;7.88;;;16.40;99.90;;;15.19;100.00;101914.38;4165174;28;20155;-74
2021/07/15 06:43:41;;;;;;;10.73;8.50;;;16.40;99.90;;;15.53;100.00;101921.56;4165177;28;20493;-72
2021/07/15 06:45:42;;;;;;;15.70;8.50;;;16.50;99.90;;;15.78;100.00;101912.66;4167769;28;20052;-72
2021/07/15 06:47:45;;;;;;;10.77;8.60;;;16.60;99.90;;;15.88;99.08;101914.22;4166523;28;20088;-72
2021/07/15 06:49:45;;;;;;;13.38;8.32;;;16.70;99.90;;;16.07;99.01;101912.25;4165218;28;20072;-72
2021/07/15 06:51:46;;;;;;;12.27;7.93;;;17.00;99.90;;;16.08;98.24;101917.41;4166421;28;20033;-72
2021/07/15 06:53:52;;;;;;;12.45;8.13;;;17.10;99.90;;;16.12;98.77;101918.75;4166096;28;20029;-73
2021/07/15 06:55:53;;;;;;;10.93;8.00;;;17.10;99.90;;;16.29;98.01;101914.28;4164455;28;20029;-73
2021/07/15 06:57:54;;;;;;;13.15;9.30;;;17.20;99.90;;;16.00;97.19;101909.41;4166292;28;20448;-73
2021/07/15 06:59:55;;;;;;;10.95;8.20;;;17.20;99.90;;;16.09;97.62;101924.41;4167256;28;20493;-73
2021/07/15 07:01:56;;;;;;;13.45;9.45;;;17.10;99.90;;;16.00;97.11;101914.75;4166001;28;20120;-72
2021/07/15 07:03:57;;;;;;;11.02;8.07;;;17.20;99.90;;;15.75;98.43;101921.81;4170261;28;20060;-73
2021/07/15 07:05:58;;;;;;;10.00;7.72;;;17.10;99.90;;;15.72;98.58;101927.44;4169245;28;20531;-75
2021/07/15 07:07:59;;;;;;;11.75;8.18;;;17.00;99.90;;;15.86;98.85;101921.50;4170400;28;20107;-75
2021/07/15 07:10:00;;;;;;;12.23;8.25;;;17.10;99.90;;;15.71;99.26;101925.78;4169467;28;20079;-76
2021/07/15 07:12:01;;;;;;;11.27;8.48;;;17.10;99.90;;;16.11;98.32;101933.06;4169445;28;20083;-75
2021/07/15 07:14:03;;;;;;;9.80;7.95;;;17.10;99.90;;;16.28;97.47;101923.25;4176480;28;20033;-75
2021/07/15 07:16:04;;;;;;;11.55;7.07;;;17.30;99.90;;;16.40;97.45;101928.09;4164455;28;20520;-74
2021/07/15 07:18:05;;;;;;;11.77;8.55;;;17.40;99.90;;;16.29;97.28;101927.59;4170658;28;20444;-74
2021/07/15 07:20:09;;;;;;;8.60;7.38;;;17.60;99.90;;;16.63;96.32;101922.16;4169147;28;20030;-75
2021/07/15 07:22:10;;;;;;;9.35;7.68;;;17.70;99.90;;;16.93;95.61;101926.81;4169368;28;20076;-74
2021/07/15 07:24:11;;;;;;;11.23;8.43;;;17.90;99.90;;;16.36;95.93;101929.47;4169894;28;20030;-74
2021/07/15 07:26:12;;;;;;;12.40;7.57;;;18.00;99.90;;;16.50;96.39;101928.78;4170383;28;20112;-76
2021/07/15 07:28:13;;;;;;;10.05;7.50;;;17.90;99.90;;;16.84;95.16;101926.00;4170211;28;20108;-76
2021/07/15 07:30:17;;;;;;;12.23;7.60;;;18.00;99.90;;;16.98;94.33;101916.47;4170327;28;20109;-80
2021/07/15 07:32:18;;;;;;;14.05;8.30;;;18.10;99.90;;;16.76;95.31;101930.47;4170344;28;20366;-77
2021/07/15 07:34:19;;;;;;;12.50;8.02;;;18.10;99.90;;;16.47;95.72;101934.44;4168776;28;20110;-77
2021/07/15 07:36:20;;;;;;;8.65;7.75;;;18.10;99.90;;;16.56;95.29;101925.50;4170343;28;20393;-82
2021/07/15 07:38:21;;;;;;;11.63;8.05;;;18.00;99.90;;;16.41;94.78;101935.09;4170213;28;20029;-83
2021/07/15 07:40:23;;;;;;;11.60;8.55;;;18.00;99.90;;;16.34;96.38;101926.09;4168584;28;20476;-83
2021/07/15 07:42:25;;;;;;;10.63;8.25;;;17.80;99.90;;;16.35;97.30;101940.25;4170188;28;20029;-84
2021/07/15 07:44:26;;;;;;;10.52;8.07;;;17.70;99.90;;;16.51;96.41;101943.78;4168424;28;20028;-82
2021/07/15 07:46:27;;;;;;;10.07;8.00;;;17.70;99.90;;;16.54;95.53;101940.81;4168443;28;20493;-74
2021/07/15 07:48:28;;;;;;;10.00;8.00;;;17.70;99.90;;;16.14;97.09;101950.53;4170109;28;20021;-74
2021/07/15 07:50:29;;;;;;;10.20;8.55;;;17.70;99.90;;;15.93;99.00;101940.31;4169211;28;20036;-74
2021/07/15 07:52:30;;;;;;;11.55;8.88;;;17.50;99.90;;;16.20;98.59;101956.03;4168937;28;20068;-71
2021/07/15 07:54:32;;;;;;;12.18;9.00;;;17.50;99.90;;;16.45;97.57;101949.78;4170269;28;20112;-74
2021/07/15 07:56:33;;;;;;;11.55;8.20;;;17.60;99.90;;;16.57;96.68;101956.47;4168923;28;20484;-75
2021/07/15 07:58:33;;;;;;;9.90;8.75;;;17.70;99.90;;;16.43;96.64;101943.75;4168901;28;20049;-74
2021/07/15 08:00:35;;;;;;;10.07;8.32;;;17.80;99.90;;;16.37;96.90;101943.56;4169094;28;20064;-74
2021/07/15 08:02:36;;;;;;;10.85;8.63;;;17.80;99.90;;;16.48;97.32;101954.78;4169090;28;20034;-74
2021/07/15 08:04:37;;;;;;;12.15;9.10;;;17.80;99.90;;;16.52;96.08;101958.75;4168896;28;20079;-73
2021/07/15 08:06:38;;;;;;;9.43;8.40;;;17.80;99.90;;;16.67;96.55;101952.78;4171232;28;20033;-74
2021/07/15 08:08:40;;;;;;;10.25;9.07;;;17.80;99.90;;;16.94;95.71;101955.97;4168475;28;20033;-73
2021/07/15 08:10:41;;;;;;;14.70;10.52;;;17.90;99.90;;;16.77;95.47;101940.97;4169653;28;20036;-72
2021/07/15 08:12:43;;;;;;;10.18;8.02;;;18.00;99.90;;;17.09;95.45;101942.78;4168377;28;20021;-73
2021/07/15 08:14:45;;;;;;;14.70;9.02;;;18.10;99.90;;;17.07;95.29;101944.78;4166828;28;20028;-73
2021/07/15 08:16:46;;;;;;;9.55;8.30;;;18.20;99.90;;;17.35;95.01;101942.56;4151824;28;20085;-74
2021/07/15 08:18:47;;;;;;;11.07;8.18;;;18.40;99.90;;;17.48;94.17;101945.50;4177171;28;20056;-73
2021/07/15 08:20:48;;;;;;;10.80;8.60;;;18.50;99.90;;;17.41;93.40;101941.88;4168362;28;20040;-73
2021/07/15 08:22:49;;;;;;;9.80;8.65;;;18.60;99.90;;;17.37;93.74;101943.22;4168117;28;20029;-74
2021/07/15 08:24:50;;;;;;;10.73;8.73;;;18.60;99.90;;;17.49;93.58;101936.50;4167706;28;20033;-74
2021/07/15 08:26:50;;;;;;;9.25;7.93;;;18.70;99.90;;;17.74;92.47;101937.28;4169252;28;20488;-77
2021/07/15 08:28:51;;;;;;;9.73;8.23;;;18.80;99.90;;;17.87;90.21;101929.53;4151452;28;20022;-74
2021/07/15 08:30:52;;;;;;;13.85;8.10;;;19.00;99.90;;;17.99;90.89;101925.47;4199498;28;20119;-73